Time;durP1;ratioP1;P1;durP2;ratioP2;P2;SDS_P1;SDS_P2;PMS_P1;PMS_P2;Temp;Humidity;BMP_temperature;BMP_pressure;BME280_temperature;BME280_humidity;BME280_pressure;Samples;Min_cycle;Max_cycle;Signal;HPM_P1;HPM_P2
2021/11/26 00:02:14;;;;;;;70.20;43.33;;;;;;;;;;5027811;28;20090;-76
2021/11/26 00:04:40;;;;;;;60.95;36.97;;;;;;;;;;5018427;28;20038;-76
2021/11/26 00:07:06;;;;;;;58.55;38.22;;;;;;;;;;5026324;28;20387;-75
2021/11/26 00:09:32;;;;;;;52.67;33.85;;;;;;;;;;5029357;28;20095;-76
2021/11/26 00:11:58;;;;;;;58.65;36.53;;;;;;;;;;4991335;28;20081;-76
2021/11/26 00:14:28;;;;;;;62.67;38.72;;;;;;;;;;5003351;28;20123;-76
2021/11/26 00:16:57;;;;;;;60.95;38.97;;;;;;;;;;5012744;28;20030;-76
2021/11/26 00:19:23;;;;;;;62.88;39.85;;;;;;;;;;5012093;28;20045;-76
2021/11/26 00:21:49;;;;;;;69.10;41.33;;;;;;;;;;5023756;28;20123;-76
2021/11/26 00:24:17;;;;;;;77.63;47.58;;;;;;;;;;5021354;28;20109;-76
2021/11/26 00:26:44;;;;;;;67.13;41.40;;;;;;;;;;5010550;28;20482;-76
2021/11/26 00:29:10;;;;;;;69.68;41.28;;;;;;;;;;5010117;28;20033;-76
2021/11/26 00:31:36;;;;;;;68.03;40.08;;;;;;;;;;5010462;28;20041;-76
2021/11/26 00:34:02;;;;;;;66.70;40.72;;;;;;;;;;5010020;28;20025;-76
2021/11/26 00:36:29;;;;;;;73.10;43.58;;;;;;;;;;5010214;28;20038;-76
2021/11/26 00:38:55;;;;;;;74.82;41.75;;;;;;;;;;5009674;28;20029;-76
2021/11/26 00:41:21;;;;;;;80.30;44.10;;;;;;;;;;5009760;28;20038;-76
2021/11/26 00:43:47;;;;;;;66.43;41.28;;;;;;;;;;5010569;28;20030;-76
2021/11/26 00:46:13;;;;;;;73.00;41.65;;;;;;;;;;5010510;28;20038;-76
2021/11/26 00:48:39;;;;;;;70.05;42.50;;;;;;;;;;5010681;28;20386;-76
2021/11/26 00:51:05;;;;;;;65.60;39.83;;;;;;;;;;5009579;28;20034;-76
2021/11/26 00:53:31;;;;;;;77.78;45.15;;;;;;;;;;5009730;28;20073;-76
2021/11/26 00:55:57;;;;;;;77.93;47.33;;;;;;;;;;5009881;28;20117;-76
2021/11/26 00:58:23;;;;;;;70.43;43.63;;;;;;;;;;5010049;28;20105;-76
2021/11/26 01:00:49;;;;;;;80.82;48.22;;;;;;;;;;5010903;28;20121;-76
2021/11/26 01:03:16;;;;;;;77.38;45.15;;;;;;;;;;5009771;28;20104;-76
2021/11/26 01:05:42;;;;;;;81.03;45.90;;;;;;;;;;5009313;28;20041;-76
2021/11/26 01:08:08;;;;;;;76.70;43.63;;;;;;;;;;5009421;28;20069;-76
2021/11/26 01:10:35;;;;;;;71.32;40.20;;;;;;;;;;5010211;28;20068;-76
2021/11/26 01:13:01;;;;;;;80.35;43.30;;;;;;;;;;5012694;28;20037;-76
2021/11/26 01:15:29;;;;;;;63.67;39.17;;;;;;;;;;5012004;28;20076;-76
2021/11/26 01:17:55;;;;;;;76.50;44.38;;;;;;;;;;5015259;28;20446;-76
2021/11/26 01:20:23;;;;;;;62.65;41.65;;;;;;;;;;5009633;28;20419;-76
2021/11/26 01:22:49;;;;;;;77.40;43.80;;;;;;;;;;5009237;28;20066;-75
2021/11/26 01:25:15;;;;;;;83.70;46.63;;;;;;;;;;5009658;28;20462;-76
2021/11/26 01:27:41;;;;;;;67.97;41.45;;;;;;;;;;5009299;28;20482;-76
2021/11/26 01:30:22;;;;;;;68.13;41.90;;;;;;;;;;5009918;28;20116;-76
2021/11/26 01:32:48;;;;;;;67.18;40.53;;;;;;;;;;4996271;28;20113;-76
2021/11/26 01:35:14;;;;;;;61.00;36.47;;;;;;;;;;5009643;28;20030;-76
2021/11/26 01:37:40;;;;;;;60.20;35.50;;;;;;;;;;5017135;28;20076;-76
2021/11/26 01:40:07;;;;;;;72.20;40.42;;;;;;;;;;5025488;28;20037;-76
2021/11/26 01:42:33;;;;;;;73.15;40.90;;;;;;;;;;5026979;28;20037;-77
2021/11/26 01:45:00;;;;;;;71.63;41.80;;;;;;;;;;5009662;28;20133;-76
2021/11/26 01:47:26;;;;;;;69.78;42.38;;;;;;;;;;5009484;28;20076;-76
2021/11/26 01:49:52;;;;;;;79.32;42.58;;;;;;;;;;5009472;28;20041;-75
2021/11/26 01:52:18;;;;;;;63.63;35.28;;;;;;;;;;5018491;28;20037;-76
2021/11/26 01:54:44;;;;;;;62.80;39.72;;;;;;;;;;5013172;28;20080;-76
2021/11/26 01:57:10;;;;;;;78.07;42.97;;;;;;;;;;5013281;28;20394;-76
2021/11/26 01:59:36;;;;;;;65.95;39.55;;;;;;;;;;5012506;28;20097;-76
2021/11/26 02:02:02;;;;;;;65.70;38.83;;;;;;;;;;5013144;28;20034;-76
2021/11/26 02:04:28;;;;;;;84.85;46.78;;;;;;;;;;5012669;28;20044;-76
2021/11/26 02:06:54;;;;;;;65.80;41.80;;;;;;;;;;5012556;28;20380;-76
2021/11/26 02:09:20;;;;;;;73.55;43.47;;;;;;;;;;5012399;28;20053;-76
2021/11/26 02:11:46;;;;;;;83.53;46.70;;;;;;;;;;5013023;28;20065;-76
2021/11/26 02:14:14;;;;;;;98.40;49.88;;;;;;;;;;5012238;28;20412;-76
2021/11/26 02:16:41;;;;;;;73.97;44.55;;;;;;;;;;5012705;28;20588;-76
2021/11/26 02:19:09;;;;;;;77.10;45.03;;;;;;;;;;5012377;28;20072;-76
2021/11/26 02:21:36;;;;;;;68.90;40.85;;;;;;;;;;5012969;28;20022;-76
2021/11/26 02:24:02;;;;;;;82.82;46.10;;;;;;;;;;5012369;28;20084;-76
2021/11/26 02:26:28;;;;;;;66.07;40.95;;;;;;;;;;5011702;28;20030;-76
2021/11/26 02:28:54;;;;;;;74.97;44.22;;;;;;;;;;5012541;28;20048;-76
2021/11/26 02:31:20;;;;;;;70.03;42.22;;;;;;;;;;5011864;28;20104;-76
2021/11/26 02:33:46;;;;;;;79.22;44.17;;;;;;;;;;5012353;28;20046;-76
2021/11/26 02:36:12;;;;;;;76.13;43.50;;;;;;;;;;5011980;28;20068;-76
2021/11/26 02:38:38;;;;;;;76.35;44.53;;;;;;;;;;5024306;28;20038;-76
2021/11/26 02:41:04;;;;;;;67.75;38.67;;;;;;;;;;5027757;28;20037;-76
2021/11/26 02:43:30;;;;;;;58.85;35.60;;;;;;;;;;5012915;28;20053;-76
2021/11/26 02:45:56;;;;;;;71.68;42.88;;;;;;;;;;5011866;28;20029;-76
2021/11/26 02:48:22;;;;;;;68.53;41.88;;;;;;;;;;5012493;28;20045;-76
2021/11/26 02:50:49;;;;;;;60.78;36.22;;;;;;;;;;5011966;28;20030;-76
2021/11/26 02:53:15;;;;;;;66.13;38.08;;;;;;;;;;5011302;28;20080;-76
2021/11/26 02:55:41;;;;;;;65.93;39.60;;;;;;;;;;5011992;28;20022;-76
2021/11/26 02:58:07;;;;;;;66.05;40.60;;;;;;;;;;5011538;28;20034;-76
2021/11/26 03:00:34;;;;;;;64.45;39.88;;;;;;;;;;5011807;28;20041;-76
2021/11/26 03:03:00;;;;;;;75.43;43.38;;;;;;;;;;5011322;28;20038;-76
2021/11/26 03:05:26;;;;;;;61.10;39.10;;;;;;;;;;5020857;28;20069;-77
2021/11/26 03:07:52;;;;;;;77.78;42.92;;;;;;;;;;5017389;28;20065;-76
2021/11/26 03:10:19;;;;;;;67.38;39.17;;;;;;;;;;5020216;28;20041;-76
2021/11/26 03:12:50;;;;;;;58.72;36.58;;;;;;;;;;5011124;28;20033;-76
2021/11/26 03:15:17;;;;;;;85.10;45.45;;;;;;;;;;5011544;28;20559;-76
2021/11/26 03:17:43;;;;;;;79.57;42.47;;;;;;;;;;5011200;28;20036;-76
2021/11/26 03:20:10;;;;;;;69.68;41.42;;;;;;;;;;5027938;28;20037;-77
2021/11/26 03:22:36;;;;;;;73.30;40.13;;;;;;;;;;5025950;28;20051;-76
2021/11/26 03:25:02;;;;;;;65.50;38.97;;;;;;;;;;5011828;28;20046;-76
2021/11/26 03:27:29;;;;;;;70.60;39.95;;;;;;;;;;5011037;28;20022;-76
2021/11/26 03:29:54;;;;;;;79.55;43.95;;;;;;;;;;5011723;28;20042;-76
2021/11/26 03:32:21;;;;;;;77.10;42.55;;;;;;;;;;5028922;28;20037;-76
2021/11/26 03:34:47;;;;;;;60.22;36.63;;;;;;;;;;5009184;28;20033;-76
2021/11/26 03:37:14;;;;;;;70.38;39.53;;;;;;;;;;5010986;28;20033;-76
2021/11/26 03:39:39;;;;;;;68.53;37.30;;;;;;;;;;5011206;28;20108;-76
2021/11/26 03:42:06;;;;;;;64.82;39.33;;;;;;;;;;5011379;28;20112;-76
2021/11/26 03:44:32;;;;;;;74.13;42.50;;;;;;;;;;5011029;28;20042;-76
2021/11/26 03:46:58;;;;;;;76.15;40.28;;;;;;;;;;5011328;28;20030;-76
2021/11/26 03:49:24;;;;;;;62.20;36.53;;;;;;;;;;5005593;28;20030;-76
2021/11/26 03:51:50;;;;;;;60.60;37.55;;;;;;;;;;4991243;28;20035;-76
2021/11/26 03:54:16;;;;;;;59.97;38.70;;;;;;;;;;4993729;28;20045;-76
2021/11/26 03:56:42;;;;;;;67.15;40.03;;;;;;;;;;5011349;28;20034;-76
2021/11/26 03:59:08;;;;;;;61.88;36.15;;;;;;;;;;5010436;28;20050;-76
2021/11/26 04:01:35;;;;;;;74.50;42.63;;;;;;;;;;4991570;28;20038;-76
2021/11/26 04:04:01;;;;;;;74.93;41.47;;;;;;;;;;4991480;28;20038;-76
2021/11/26 04:06:27;;;;;;;61.72;35.83;;;;;;;;;;5007747;28;20109;-76
2021/11/26 04:08:53;;;;;;;77.20;42.55;;;;;;;;;;5010972;28;20037;-76
2021/11/26 04:11:19;;;;;;;81.18;43.05;;;;;;;;;;5012724;28;20038;-75
2021/11/26 04:13:46;;;;;;;63.38;39.47;;;;;;;;;;5010496;28;20060;-77
2021/11/26 04:16:13;;;;;;;66.20;37.97;;;;;;;;;;5017883;28;20061;-76
2021/11/26 04:18:40;;;;;;;63.67;36.25;;;;;;;;;;5030619;28;20029;-76
2021/11/26 04:21:06;;;;;;;63.22;35.22;;;;;;;;;;5014082;28;20104;-76
2021/11/26 04:23:32;;;;;;;59.75;35.15;;;;;;;;;;5013295;28;20045;-76
2021/11/26 04:25:58;;;;;;;56.70;33.38;;;;;;;;;;5023824;28;20030;-76
2021/11/26 04:28:25;;;;;;;70.18;39.63;;;;;;;;;;5010380;28;20038;-76
2021/11/26 04:30:51;;;;;;;64.68;37.85;;;;;;;;;;5010688;28;20034;-76
2021/11/26 04:33:17;;;;;;;62.83;36.85;;;;;;;;;;5009987;28;20667;-76
2021/11/26 04:35:47;;;;;;;68.72;37.70;;;;;;;;;;5010474;28;20032;-76
2021/11/26 04:38:14;;;;;;;64.78;36.45;;;;;;;;;;5010530;28;20034;-76
2021/11/26 04:40:40;;;;;;;73.40;38.40;;;;;;;;;;5011382;28;20077;-75
2021/11/26 04:43:06;;;;;;;67.13;39.40;;;;;;;;;;5011668;28;20042;-76
2021/11/26 04:45:32;;;;;;;67.38;40.47;;;;;;;;;;5011681;28;20859;-76
2021/11/26 04:47:58;;;;;;;60.13;34.28;;;;;;;;;;5012570;28;20018;-76
2021/11/26 04:50:24;;;;;;;64.30;36.33;;;;;;;;;;5012436;28;20053;-76
2021/11/26 04:52:52;;;;;;;72.03;42.10;;;;;;;;;;5010849;28;20037;-76
2021/11/26 04:55:19;;;;;;;62.58;37.38;;;;;;;;;;5012426;28;20064;-76
2021/11/26 04:57:45;;;;;;;76.25;42.33;;;;;;;;;;5031400;28;20684;-76
2021/11/26 05:00:13;;;;;;;70.60;38.65;;;;;;;;;;5010518;28;20749;-76
2021/11/26 05:02:39;;;;;;;62.58;38.72;;;;;;;;;;5010560;28;20108;-76
2021/11/26 05:05:05;;;;;;;59.35;36.63;;;;;;;;;;5017283;28;20033;-76
2021/11/26 05:07:31;;;;;;;70.20;38.25;;;;;;;;;;5021000;28;20144;-76
2021/11/26 05:09:59;;;;;;;81.22;42.08;;;;;;;;;;5014814;28;20049;-75
2021/11/26 05:12:31;;;;;;;68.30;39.60;;;;;;;;;;5009677;28;20034;-76
2021/11/26 05:14:57;;;;;;;77.45;43.28;;;;;;;;;;5008966;28;20026;-76
2021/11/26 05:17:23;;;;;;;77.10;45.00;;;;;;;;;;5009529;28;20033;-76
2021/11/26 05:19:49;;;;;;;93.03;49.22;;;;;;;;;;5014489;28;20033;-76
2021/11/26 05:22:15;;;;;;;84.93;46.67;;;;;;;;;;5018478;28;20472;-75
2021/11/26 05:24:41;;;;;;;78.78;43.88;;;;;;;;;;4990688;28;20042;-76
2021/11/26 05:27:07;;;;;;;76.45;44.03;;;;;;;;;;4991815;28;20860;-76
2021/11/26 05:29:33;;;;;;;77.20;41.67;;;;;;;;;;5010099;28;20038;-76
2021/11/26 05:31:59;;;;;;;99.85;50.20;;;;;;;;;;5015685;28;20082;-76
2021/11/26 05:34:26;;;;;;;96.13;47.88;;;;;;;;;;5010454;28;20037;-76
2021/11/26 05:36:51;;;;;;;83.82;44.60;;;;;;;;;;5029172;28;20038;-76
2021/11/26 05:39:18;;;;;;;82.60;46.03;;;;;;;;;;5011827;28;20045;-76
2021/11/26 05:41:44;;;;;;;89.93;45.05;;;;;;;;;;5009741;28;20026;-76
2021/11/26 05:44:10;;;;;;;99.68;48.22;;;;;;;;;;5009602;28;20647;-76
2021/11/26 05:46:36;;;;;;;78.40;44.38;;;;;;;;;;5009377;28;20030;-76
2021/11/26 05:49:02;;;;;;;92.07;50.17;;;;;;;;;;5011840;28;20041;-75
2021/11/26 05:51:28;;;;;;;94.13;51.35;;;;;;;;;;5009331;28;20026;-75
2021/11/26 05:53:54;;;;;;;78.75;44.15;;;;;;;;;;5008987;28;20057;-76
2021/11/26 05:56:20;;;;;;;77.15;45.67;;;;;;;;;;5009133;28;20096;-77
2021/11/26 05:58:46;;;;;;;72.45;39.10;;;;;;;;;;5009106;28;20034;-76
2021/11/26 06:01:12;;;;;;;86.63;41.78;;;;;;;;;;5008584;28;20510;-76
2021/11/26 06:03:39;;;;;;;75.32;40.85;;;;;;;;;;5013295;28;20113;-76
2021/11/26 06:06:05;;;;;;;64.45;35.97;;;;;;;;;;5022799;28;20037;-76
2021/11/26 06:08:31;;;;;;;65.03;35.75;;;;;;;;;;5009883;28;20446;-76
2021/11/26 06:10:57;;;;;;;58.47;33.28;;;;;;;;;;5010068;28;20021;-76
2021/11/26 06:13:23;;;;;;;68.22;37.85;;;;;;;;;;5011171;28;20643;-76
2021/11/26 06:15:49;;;;;;;68.93;40.42;;;;;;;;;;5009628;28;20045;-76
2021/11/26 06:18:15;;;;;;;63.75;37.25;;;;;;;;;;5010196;28;20145;-76
2021/11/26 06:20:41;;;;;;;68.75;37.15;;;;;;;;;;5009668;28;20029;-76
2021/11/26 06:23:07;;;;;;;60.45;32.20;;;;;;;;;;5015329;28;20068;-76
2021/11/26 06:25:33;;;;;;;69.05;36.15;;;;;;;;;;5010121;28;20045;-76
2021/11/26 06:27:59;;;;;;;67.80;34.53;;;;;;;;;;5008418;28;20041;-76
2021/11/26 06:30:25;;;;;;;54.50;29.83;;;;;;;;;;5008932;28;20041;-76
2021/11/26 06:32:52;;;;;;;52.78;28.80;;;;;;;;;;5008278;28;20033;-76
2021/11/26 06:35:20;;;;;;;62.90;31.38;;;;;;;;;;5017577;28;20353;-76
2021/11/26 06:37:46;;;;;;;56.63;27.95;;;;;;;;;;5019560;28;20048;-76
2021/11/26 06:40:12;;;;;;;57.33;26.88;;;;;;;;;;5011134;28;20037;-76
2021/11/26 06:42:38;;;;;;;51.40;27.88;;;;;;;;;;5023768;28;20863;-76
2021/11/26 06:45:06;;;;;;;50.22;27.67;;;;;;;;;;5023261;28;20034;-76
2021/11/26 06:47:32;;;;;;;47.97;26.27;;;;;;;;;;5011642;28;20038;-76
2021/11/26 06:49:58;;;;;;;46.92;25.90;;;;;;;;;;4993279;28;20039;-76
2021/11/26 06:52:24;;;;;;;48.53;27.85;;;;;;;;;;5002261;28;20864;-76
2021/11/26 06:54:50;;;;;;;54.00;29.20;;;;;;;;;;5011976;28;20030;-77
2021/11/26 06:57:16;;;;;;;41.28;23.80;;;;;;;;;;5012742;28;20037;-77
2021/11/26 06:59:42;;;;;;;46.38;22.25;;;;;;;;;;5022262;28;20061;-77
2021/11/26 07:02:09;;;;;;;35.80;18.70;;;;;;;;;;5026548;28;20388;-77
2021/11/26 07:04:37;;;;;;;27.63;16.98;;;;;;;;;;5011587;28;20470;-77
2021/11/26 07:07:03;;;;;;;25.85;13.68;;;;;;;;;;5021519;28;20038;-76
2021/11/26 07:09:29;;;;;;;28.00;14.25;;;;;;;;;;5020452;28;20071;-77
2021/11/26 07:11:55;;;;;;;26.58;13.02;;;;;;;;;;5023066;28;20770;-76
2021/11/26 07:14:21;;;;;;;22.60;12.82;;;;;;;;;;5009150;28;20038;-77
2021/11/26 07:16:47;;;;;;;21.23;9.85;;;;;;;;;;5011502;28;20030;-77
2021/11/26 07:19:13;;;;;;;19.23;10.32;;;;;;;;;;5005447;28;20030;-77
2021/11/26 07:21:39;;;;;;;15.52;9.20;;;;;;;;;;5019897;28;20091;-77
2021/11/26 07:24:05;;;;;;;12.05;7.70;;;;;;;;;;5005329;28;20469;-76
2021/11/26 07:26:31;;;;;;;10.85;6.40;;;;;;;;;;5008955;28;20430;-76
2021/11/26 07:28:57;;;;;;;11.35;6.18;;;;;;;;;;5009913;28;20117;-76
2021/11/26 07:31:23;;;;;;;10.57;5.20;;;;;;;;;;5013544;28;20124;-76
2021/11/26 07:33:49;;;;;;;11.55;6.47;;;;;;;;;;5002067;28;20038;-77
2021/11/26 07:36:15;;;;;;;11.98;6.93;;;;;;;;;;4992665;28;20034;-77
2021/11/26 07:38:42;;;;;;;11.50;5.97;;;;;;;;;;5000702;28;20041;-76
2021/11/26 07:41:08;;;;;;;11.55;6.55;;;;;;;;;;5007468;28;20030;-77
2021/11/26 07:43:34;;;;;;;15.85;7.78;;;;;;;;;;5012229;28;20125;-76
2021/11/26 07:46:01;;;;;;;14.32;7.13;;;;;;;;;;4995934;28;20041;-76
2021/11/26 07:48:27;;;;;;;13.38;6.72;;;;;;;;;;5010884;28;20038;-76
2021/11/26 07:50:55;;;;;;;9.38;5.57;;;;;;;;;;5020174;28;20132;-76
2021/11/26 07:53:21;;;;;;;11.85;5.97;;;;;;;;;;5013722;28;20479;-76
2021/11/26 07:55:49;;;;;;;13.25;6.70;;;;;;;;;;5010558;28;20036;-76
2021/11/26 07:58:15;;;;;;;11.90;6.47;;;;;;;;;;5007071;28;20037;-76
2021/11/26 08:00:41;;;;;;;13.93;6.82;;;;;;;;;;5017202;28;20045;-75
2021/11/26 08:03:07;;;;;;;11.88;6.28;;;;;;;;;;5004524;28;20057;-76
2021/11/26 08:05:33;;;;;;;14.43;7.07;;;;;;;;;;5003386;28;20126;-76
2021/11/26 08:08:01;;;;;;;10.27;5.93;;;;;;;;;;5011518;28;20419;-76
2021/11/26 08:10:28;;;;;;;17.77;8.60;;;;;;;;;;5002832;28;20117;-77
2021/11/26 08:12:54;;;;;;;14.88;7.43;;;;;;;;;;5011561;28;20476;-76
2021/11/26 08:15:20;;;;;;;12.35;7.10;;;;;;;;;;5010423;28;20423;-76
2021/11/26 08:17:46;;;;;;;14.68;8.23;;;;;;;;;;5009359;28;20052;-77
2021/11/26 08:20:14;;;;;;;14.23;8.18;;;;;;;;;;5051440;23;20144;-76
2021/11/26 08:22:40;;;;;;;11.82;6.93;;;;;;;;;;5028401;28;20225;-77
2021/11/26 08:25:08;;;;;;;13.38;6.85;;;;;;;;;;5016357;28;20166;-77
2021/11/26 08:27:34;;;;;;;13.35;7.90;;;;;;;;;;5030104;28;20033;-76
2021/11/26 08:30:00;;;;;;;11.70;6.50;;;;;;;;;;5021342;28;20090;-76
2021/11/26 08:32:28;;;;;;;9.70;6.22;;;;;;;;;;5032876;28;20029;-76
2021/11/26 08:34:54;;;;;;;12.93;7.57;;;;;;;;;;5039785;28;20075;-76
2021/11/26 08:37:20;;;;;;;11.60;6.13;;;;;;;;;;5015277;28;20033;-76
2021/11/26 08:39:48;;;;;;;10.10;5.82;;;;;;;;;;5014810;28;20034;-77
2021/11/26 08:42:14;;;;;;;10.07;5.40;;;;;;;;;;5015057;28;20053;-76
2021/11/26 08:44:40;;;;;;;6.65;4.10;;;;;;;;;;5035998;28;20033;-76
2021/11/26 08:47:06;;;;;;;9.95;3.80;;;;;;;;;;5035628;28;20065;-76
2021/11/26 08:49:32;;;;;;;8.82;4.05;;;;;;;;;;5016602;28;20117;-76
2021/11/26 08:51:58;;;;;;;6.63;3.10;;;;;;;;;;5009967;28;20076;-76
2021/11/26 08:54:25;;;;;;;6.20;3.35;;;;;;;;;;5024749;28;20061;-76
2021/11/26 08:56:54;;;;;;;7.25;3.92;;;;;;;;;;5022954;28;20071;-76
2021/11/26 08:59:20;;;;;;;9.32;3.90;;;;;;;;;;5025164;28;20037;-76
2021/11/26 09:01:47;;;;;;;8.70;4.15;;;;;;;;;;5015325;28;20053;-77
2021/11/26 09:04:13;;;;;;;9.05;4.03;;;;;;;;;;5009498;28;20467;-76
2021/11/26 09:06:39;;;;;;;9.70;4.85;;;;;;;;;;5009191;28;20040;-77
2021/11/26 09:09:06;;;;;;;9.90;4.15;;;;;;;;;;5010325;28;20104;-76
2021/11/26 09:11:32;;;;;;;13.15;4.38;;;;;;;;;;4998609;28;20064;-76
2021/11/26 09:14:00;;;;;;;6.97;4.15;;;;;;;;;;5005564;28;20636;-76
2021/11/26 09:16:26;;;;;;;9.98;4.22;;;;;;;;;;4997430;28;20057;-76
2021/11/26 09:18:52;;;;;;;8.55;4.00;;;;;;;;;;5013816;28;20061;-77
2021/11/26 09:21:18;;;;;;;16.38;4.80;;;;;;;;;;4998764;28;20030;-76
2021/11/26 09:23:45;;;;;;;6.80;3.70;;;;;;;;;;5015397;28;20045;-77
2021/11/26 09:26:11;;;;;;;8.15;5.18;;;;;;;;;;5005134;28;22087;-76
2021/11/26 09:28:37;;;;;;;9.23;4.75;;;;;;;;;;5000649;28;20030;-76
2021/11/26 09:31:03;;;;;;;8.30;4.60;;;;;;;;;;4989840;28;20041;-77
2021/11/26 09:33:35;;;;;;;10.20;4.75;;;;;;;;;;5003666;28;20076;-76
2021/11/26 09:36:01;;;;;;;13.25;6.07;;;;;;;;;;5002207;28;20041;-76
2021/11/26 09:38:27;;;;;;;9.57;4.97;;;;;;;;;;5014742;28;20025;-77
2021/11/26 09:40:53;;;;;;;8.52;3.85;;;;;;;;;;5000538;28;20026;-76
2021/11/26 09:43:19;;;;;;;10.10;3.47;;;;;;;;;;4997575;28;20109;-76
2021/11/26 09:45:45;;;;;;;9.35;3.78;;;;;;;;;;5008755;28;20033;-76
2021/11/26 09:48:11;;;;;;;8.98;3.63;;;;;;;;;;5007511;28;20387;-77
2021/11/26 09:50:38;;;;;;;7.05;3.20;;;;;;;;;;5025333;28;20464;-76
2021/11/26 09:53:13;;;;;;;6.43;2.95;;;;;;;;;;5007061;28;20045;-76
2021/11/26 09:55:42;;;;;;;7.35;3.42;;;;;;;;;;5022857;28;20562;-76
2021/11/26 09:58:08;;;;;;;8.13;3.20;;;;;;;;;;5013628;28;20053;-77
2021/11/26 10:00:34;;;;;;;6.18;3.13;;;;;;;;;;5020792;28;20936;-77
2021/11/26 10:03:00;;;;;;;5.28;2.85;;;;;;;;;;5011911;28;20478;-76
2021/11/26 10:05:31;;;;;;;7.53;3.92;;;;;;;;;;5011479;28;20113;-76
2021/11/26 10:07:57;;;;;;;10.48;3.15;;;;;;;;;;5020542;28;20863;-76
2021/11/26 10:10:26;;;;;;;6.50;2.20;;;;;;;;;;5002668;28;20037;-77
2021/11/26 10:13:03;;;;;;;7.40;2.00;;;;;;;;;;5006068;28;20037;-77
2021/11/26 10:15:34;;;;;;;4.60;2.00;;;;;;;;;;5005277;28;20021;-76
2021/11/26 10:18:04;;;;;;;5.10;1.95;;;;;;;;;;5005415;28;20030;-76
2021/11/26 10:20:30;;;;;;;5.93;2.83;;;;;;;;;;5011506;28;20076;-76
2021/11/26 10:22:56;;;;;;;7.82;3.28;;;;;;;;;;5009200;28;20037;-76
2021/11/26 10:25:22;;;;;;;8.10;2.50;;;;;;;;;;4993788;28;20038;-76
2021/11/26 10:27:59;;;;;;;5.25;2.45;;;;;;;;;;5017151;28;20101;-76
2021/11/26 10:30:45;;;;;;;6.03;2.70;;;;;;;;;;5019887;28;20033;-76
2021/11/26 10:33:17;;;;;;;9.52;3.40;;;;;;;;;;5005850;28;20070;-76
2021/11/26 10:35:49;;;;;;;6.70;3.83;;;;;;;;;;5010871;28;20452;-76
2021/11/26 10:38:35;;;;;;;7.03;3.80;;;;;;;;;;5024914;28;20045;-76
2021/11/26 10:41:05;;;;;;;7.70;4.40;;;;;;;;;;5031019;28;20051;-76
2021/11/26 10:43:38;;;;;;;9.25;4.32;;;;;;;;;;5017962;28;20045;-76
2021/11/26 10:59:14;;;;;;;8.68;3.55;;;;;;;;;;5002611;28;20093;-76
2021/11/26 11:01:44;;;;;;;8.07;3.70;;;;;;;;;;5003432;28;20024;-76
2021/11/26 11:04:17;;;;;;;6.10;3.65;;;;;;;;;;5011701;28;20072;-76
2021/11/26 11:06:43;;;;;;;7.18;3.55;;;;;;;;;;5014070;28;20109;-76
2021/11/26 11:09:11;;;;;;;7.55;3.20;;;;;;;;;;5004681;28;20043;-76
2021/11/26 11:11:37;;;;;;;6.35;3.40;;;;;;;;;;5011624;28;20589;-76
2021/11/26 11:14:17;;;;;;;8.32;3.03;;;;;;;;;;5012065;28;20156;-76
2021/11/26 11:16:47;;;;;;;6.32;3.42;;;;;;;;;;5019454;28;20121;-76
2021/11/26 11:19:13;;;;;;;10.35;3.92;;;;;;;;;;4992277;28;20058;-76
2021/11/26 11:21:40;;;;;;;6.10;3.17;;;;;;;;;;5002786;28;20041;-77
2021/11/26 11:24:06;;;;;;;7.60;4.05;;;;;;;;;;5011816;28;20080;-77
2021/11/26 11:26:32;;;;;;;7.80;3.05;;;;;;;;;;5010942;28;20072;-77
2021/11/26 11:28:58;;;;;;;5.57;3.17;;;;;;;;;;5014172;28;20041;-76
2021/11/26 11:31:24;;;;;;;6.43;3.60;;;;;;;;;;5012511;28;20411;-76
2021/11/26 11:33:52;;;;;;;8.05;3.90;;;;;;;;;;5012207;28;20391;-76
2021/11/26 11:36:18;;;;;;;8.50;4.20;;;;;;;;;;4992098;28;20050;-76
2021/11/26 11:38:44;;;;;;;7.00;3.42;;;;;;;;;;5007010;28;20072;-76
2021/11/26 11:41:10;;;;;;;7.35;3.90;;;;;;;;;;5011760;28;20640;-76
2021/11/26 11:43:46;;;;;;;8.20;4.72;;;;;;;;;;5013372;28;20042;-76
2021/11/26 11:46:14;;;;;;;7.55;3.90;;;;;;;;;;5031355;28;20052;-76
2021/11/26 11:48:45;;;;;;;10.20;4.13;;;;;;;;;;5014512;28;20034;-76
2021/11/26 11:51:20;;;;;;;8.70;4.40;;;;;;;;;;5021962;28;20029;-76
2021/11/26 11:53:46;;;;;;;6.28;3.80;;;;;;;;;;5006054;28;20070;-76
2021/11/26 11:56:14;;;;;;;7.88;4.15;;;;;;;;;;4991534;28;20453;-76
2021/11/26 11:59:06;;;;;;;7.38;3.83;;;;;;;;;;5010398;28;20104;-77
2021/11/26 12:01:39;;;;;;;7.60;3.90;;;;;;;;;;5005824;28;20038;-76
2021/11/26 12:04:17;;;;;;;11.52;4.55;;;;;;;;;;5021923;28;20148;-76
2021/11/26 12:06:44;;;;;;;8.48;4.05;;;;;;;;;;5001846;28;20706;-76
2021/11/26 12:09:21;;;;;;;8.00;4.72;;;;;;;;;;5010671;28;20044;-77
2021/11/26 12:11:47;;;;;;;10.68;4.40;;;;;;;;;;5001200;28;20098;-76
2021/11/26 12:14:14;;;;;;;8.45;4.47;;;;;;;;;;5013568;28;20033;-76
2021/11/26 12:16:45;;;;;;;7.10;4.47;;;;;;;;;;5030732;28;20857;-76
2021/11/26 12:19:22;;;;;;;10.68;4.55;;;;;;;;;;5007555;28;20399;-76
2021/11/26 12:21:49;;;;;;;7.97;4.32;;;;;;;;;;5015620;28;20037;-76
2021/11/26 12:24:21;;;;;;;9.27;4.90;;;;;;;;;;5014669;28;20034;-76
2021/11/26 12:26:52;;;;;;;8.35;4.00;;;;;;;;;;5005684;28;20476;-76
2021/11/26 12:29:19;;;;;;;8.25;3.85;;;;;;;;;;5012533;28;20038;-76
2021/11/26 12:31:46;;;;;;;7.22;4.22;;;;;;;;;;5006461;28;20924;-76
2021/11/26 12:34:14;;;;;;;11.27;4.15;;;;;;;;;;5006239;28;20048;-76
2021/11/26 12:36:50;;;;;;;6.30;4.00;;;;;;;;;;5009863;28;20067;-76
2021/11/26 12:39:19;;;;;;;11.43;4.82;;;;;;;;;;5015160;28;20112;-76
2021/11/26 12:41:46;;;;;;;10.82;5.30;;;;;;;;;;5003917;28;20025;-76
2021/11/26 12:44:14;;;;;;;12.63;4.03;;;;;;;;;;5014720;28;20056;-76
2021/11/26 12:46:41;;;;;;;9.82;4.10;;;;;;;;;;5008766;28;20029;-76
2021/11/26 12:51:51;;;;;;;8.98;4.85;;;;;;;;;;4996039;28;20570;-76
2021/11/26 12:54:23;;;;;;;11.05;4.10;;;;;;;;;;5014375;28;20038;-76
2021/11/26 12:56:49;;;;;;;10.10;4.78;;;;;;;;;;5008026;28;20022;-76
2021/11/26 12:59:26;;;;;;;12.38;4.70;;;;;;;;;;5027245;28;20064;-76
2021/11/26 13:01:52;;;;;;;10.40;5.35;;;;;;;;;;5028255;28;20108;-76
2021/11/26 13:04:18;;;;;;;7.28;3.80;;;;;;;;;;5016806;28;20038;-76
2021/11/26 13:06:44;;;;;;;8.80;5.13;;;;;;;;;;5000576;28;20056;-76
2021/11/26 13:09:10;;;;;;;9.13;5.22;;;;;;;;;;5007720;28;20049;-76
2021/11/26 13:11:43;;;;;;;11.25;4.95;;;;;;;;;;5011352;28;20034;-77
2021/11/26 13:14:10;;;;;;;8.02;4.68;;;;;;;;;;5011319;28;20578;-76
2021/11/26 13:16:37;;;;;;;10.27;4.95;;;;;;;;;;4992020;28;20054;-76
2021/11/26 13:19:10;;;;;;;6.75;3.92;;;;;;;;;;5020430;28;20061;-77
2021/11/26 13:21:36;;;;;;;8.05;3.35;;;;;;;;;;5009063;28;20034;-77
2021/11/26 13:24:04;;;;;;;8.15;4.50;;;;;;;;;;5017791;28;20037;-78
2021/11/26 13:26:33;;;;;;;8.27;4.40;;;;;;;;;;5010001;28;20041;-76
2021/11/26 13:28:59;;;;;;;7.18;4.18;;;;;;;;;;5010871;28;20679;-77
2021/11/26 13:31:29;;;;;;;9.95;5.03;;;;;;;;;;5009859;28;20080;-77
2021/11/26 13:33:56;;;;;;;9.57;4.55;;;;;;;;;;5011520;28;20136;-77
2021/11/26 13:36:24;;;;;;;10.82;5.55;;;;;;;;;;5007757;28;20037;-76
2021/11/26 13:38:53;;;;;;;10.70;5.68;;;;;;;;;;5009339;28;20030;-77
2021/11/26 13:41:20;;;;;;;16.20;7.75;;;;;;;;;;5009464;28;20113;-77
2021/11/26 13:43:52;;;;;;;9.93;5.85;;;;;;;;;;5012983;28;20375;-77
2021/11/26 13:46:47;;;;;;;9.65;4.72;;;;;;;;;;4999780;28;20507;-77
2021/11/26 13:49:13;;;;;;;9.95;4.47;;;;;;;;;;5000369;28;20052;-76
2021/11/26 13:51:50;;;;;;;6.20;3.60;;;;;;;;;;5022392;28;20033;-77
2021/11/26 13:54:17;;;;;;;12.02;4.95;;;;;;;;;;5010276;28;20046;-77
2021/11/26 13:56:45;;;;;;;14.93;8.00;;;;;;;;;;5006495;28;20129;-77
2021/11/26 13:59:12;;;;;;;9.23;4.72;;;;;;;;;;5013189;28;20069;-77
2021/11/26 14:01:40;;;;;;;8.77;4.35;;;;;;;;;;5011467;28;20031;-76
2021/11/26 14:04:10;;;;;;;8.68;4.40;;;;;;;;;;5017241;28;20046;-77
2021/11/26 14:06:38;;;;;;;8.23;4.65;;;;;;;;;;5012914;28;20375;-76
2021/11/26 14:09:12;;;;;;;9.98;4.40;;;;;;;;;;4998081;28;20112;-77
2021/11/26 14:11:43;;;;;;;11.23;6.03;;;;;;;;;;5008117;28;20026;-77
2021/11/26 14:14:10;;;;;;;14.70;7.47;;;;;;;;;;5008173;28;20040;-77
2021/11/26 14:16:47;;;;;;;9.90;5.38;;;;;;;;;;4995763;28;20026;-78
2021/11/26 14:19:15;;;;;;;9.30;5.28;;;;;;;;;;5007367;28;20062;-77
2021/11/26 14:21:51;;;;;;;12.10;5.15;;;;;;;;;;5017988;28;20049;-77
2021/11/26 14:24:17;;;;;;;8.93;4.75;;;;;;;;;;5006015;28;20042;-77
2021/11/26 14:26:49;;;;;;;10.38;5.13;;;;;;;;;;5003734;28;20030;-77
2021/11/26 14:29:15;;;;;;;9.53;5.17;;;;;;;;;;5014908;28;20048;-77
2021/11/26 14:31:42;;;;;;;14.13;4.97;;;;;;;;;;4993101;28;20046;-77
2021/11/26 14:34:09;;;;;;;13.02;5.95;;;;;;;;;;5006542;28;20530;-78
2021/11/26 14:36:35;;;;;;;10.48;5.82;;;;;;;;;;5005528;28;20037;-77
2021/11/26 14:39:02;;;;;;;14.93;7.53;;;;;;;;;;5010781;28;20073;-77
2021/11/26 14:41:28;;;;;;;11.80;5.20;;;;;;;;;;5015131;28;20033;-77
2021/11/26 14:44:10;;;;;;;13.20;4.90;;;;;;;;;;5014808;28;20044;-77